createdAt,value
2023-05-19T00:01:16.724Z,50.20
2023-05-19T00:03:54.894Z,49.83
2023-05-19T00:06:27.304Z,47.45
2023-05-19T00:08:59.520Z,46.00
2023-05-19T00:11:28.092Z,47.25
2023-05-19T00:13:55.976Z,45.88
2023-05-19T00:16:23.806Z,46.75
2023-05-19T00:18:51.834Z,46.58
2023-05-19T00:21:18.876Z,47.88
2023-05-19T00:23:45.707Z,48.00
2023-05-19T00:26:12.783Z,46.65
2023-05-19T00:28:39.450Z,50.10
2023-05-19T00:31:06.457Z,50.03
2023-05-19T00:33:33.957Z,48.58
2023-05-19T00:36:05.862Z,49.15
2023-05-19T00:38:34.596Z,47.13
2023-05-19T00:41:02.620Z,50.33
2023-05-19T00:43:34.335Z,47.67
2023-05-19T00:46:01.013Z,46.25
2023-05-19T00:48:27.742Z,45.28
2023-05-19T00:51:02.079Z,42.22
2023-05-19T00:55:56.528Z,38.15
2023-05-19T00:58:25.652Z,39.00
2023-05-19T01:00:53.071Z,41.13
2023-05-19T01:03:20.538Z,41.72
2023-05-19T01:05:49.925Z,42.08
2023-05-19T01:08:16.583Z,40.80
2023-05-19T01:10:43.234Z,44.10
2023-05-19T01:13:10.110Z,46.17
2023-05-19T01:15:51.892Z,46.00
2023-05-19T01:18:29.500Z,43.17
2023-05-19T01:21:22.966Z,45.33
2023-05-19T01:24:06.342Z,45.47
2023-05-19T01:26:54.308Z,47.42
2023-05-19T01:30:08.675Z,46.38
2023-05-19T01:32:36.687Z,48.58
2023-05-19T01:35:05.633Z,50.65
2023-05-19T01:37:32.411Z,51.25
2023-05-19T01:39:59.098Z,55.33
2023-05-19T01:42:27.320Z,55.15
2023-05-19T01:44:55.502Z,56.17
2023-05-19T01:47:22.724Z,57.50
2023-05-19T01:49:49.350Z,58.15
2023-05-19T01:52:15.965Z,59.88
2023-05-19T01:54:42.637Z,58.95
2023-05-19T01:57:20.091Z,62.70
2023-05-19T01:59:54.535Z,60.40
2023-05-19T02:02:31.430Z,58.13
2023-05-19T02:05:09.592Z,60.10
2023-05-19T02:07:44.309Z,61.97
2023-05-19T02:10:14.842Z,61.17
2023-05-19T02:12:46.164Z,61.00
2023-05-19T02:15:18.057Z,59.63
2023-05-19T02:17:51.866Z,59.45
2023-05-19T02:20:18.865Z,59.83
2023-05-19T02:22:45.845Z,59.40
2023-05-19T02:25:12.519Z,63.28
2023-05-19T02:27:39.703Z,62.70
2023-05-19T02:30:07.247Z,64.85
2023-05-19T02:32:33.999Z,67.82
2023-05-19T02:35:00.696Z,64.60
2023-05-19T02:37:31.208Z,66.47
2023-05-19T02:39:58.155Z,68.50
2023-05-19T02:42:24.843Z,72.38
2023-05-19T02:44:52.427Z,72.25
2023-05-19T02:47:19.095Z,76.65
2023-05-19T02:49:45.955Z,76.47
2023-05-19T02:52:12.625Z,79.55
2023-05-19T02:54:39.241Z,80.82
2023-05-19T02:57:06.853Z,78.85
2023-05-19T02:59:33.710Z,84.30
2023-05-19T03:02:01.795Z,79.80
2023-05-19T03:04:29.891Z,77.60
2023-05-19T03:07:00.099Z,76.72
2023-05-19T03:09:26.796Z,77.00
2023-05-19T03:11:53.423Z,79.07
2023-05-19T03:14:24.154Z,78.70
2023-05-19T03:16:51.115Z,81.10
2023-05-19T03:19:18.300Z,84.95
2023-05-19T03:21:46.057Z,86.82
2023-05-19T03:24:12.960Z,88.70
2023-05-19T03:26:39.602Z,89.90
2023-05-19T03:29:06.368Z,96.20
2023-05-19T03:31:34.114Z,101.30
2023-05-19T03:34:00.988Z,108.47
2023-05-19T03:36:32.024Z,112.35
2023-05-19T03:38:59.562Z,120.72
2023-05-19T03:41:26.128Z,120.18
2023-05-19T03:43:52.752Z,116.05
2023-05-19T03:46:19.462Z,123.70
2023-05-19T03:48:46.181Z,124.32
2023-05-19T03:51:13.572Z,125.40
2023-05-19T03:53:41.241Z,129.13
2023-05-19T03:56:08.891Z,132.30
2023-05-19T03:58:37.096Z,131.07
2023-05-19T04:01:03.743Z,136.85
2023-05-19T04:03:30.593Z,133.77
2023-05-19T04:05:57.229Z,133.15
2023-05-19T04:08:23.849Z,134.30
2023-05-19T04:10:50.450Z,132.88
2023-05-19T04:13:17.104Z,134.98
2023-05-19T04:15:43.864Z,137.63
2023-05-19T04:18:10.963Z,139.25
2023-05-19T04:20:37.601Z,138.73
2023-05-19T04:23:04.305Z,138.45
2023-05-19T04:25:30.929Z,139.23
2023-05-19T04:27:57.973Z,145.00
2023-05-19T04:30:25.048Z,136.30
2023-05-19T04:32:53.803Z,136.50
2023-05-19T04:35:21.019Z,137.55
2023-05-19T04:37:48.523Z,136.45
2023-05-19T04:40:15.984Z,136.90
2023-05-19T04:42:42.846Z,141.40
2023-05-19T04:45:10.167Z,138.27
2023-05-19T04:47:39.311Z,142.52
2023-05-19T04:50:07.484Z,150.65
2023-05-19T04:52:34.152Z,144.25
2023-05-19T04:55:00.918Z,145.20
2023-05-19T04:57:27.546Z,147.52
2023-05-19T04:59:59.883Z,144.93
2023-05-19T05:02:29.249Z,137.93
2023-05-19T05:04:56.757Z,138.55
2023-05-19T05:07:23.772Z,138.07
2023-05-19T05:09:50.540Z,137.40
2023-05-19T05:12:18.609Z,140.02
2023-05-19T05:14:45.852Z,143.38
2023-05-19T05:17:13.376Z,144.13
2023-05-19T05:19:40.689Z,138.25
2023-05-19T05:22:07.846Z,129.65
2023-05-19T05:24:34.836Z,122.97
2023-05-19T05:27:01.519Z,127.00
2023-05-19T05:29:28.203Z,126.03
2023-05-19T05:31:54.847Z,120.97
2023-05-19T05:34:21.555Z,119.93
2023-05-19T05:36:48.288Z,107.97
2023-05-19T05:39:14.985Z,109.93
2023-05-19T05:41:41.570Z,110.28
2023-05-19T05:44:08.253Z,107.70
2023-05-19T05:46:35.550Z,100.05
2023-05-19T05:49:02.564Z,100.28
2023-05-19T05:51:29.450Z,96.55
2023-05-19T05:53:57.552Z,96.15
2023-05-19T05:56:24.435Z,88.40
2023-05-19T05:58:51.077Z,93.07
2023-05-19T06:01:18.005Z,79.85
2023-05-19T06:03:45.133Z,77.07
2023-05-19T06:06:12.471Z,66.53
2023-05-19T06:08:39.110Z,63.63
2023-05-19T06:11:10.333Z,63.17
2023-05-19T06:13:38.073Z,55.58
2023-05-19T06:16:05.916Z,60.05
2023-05-19T06:18:32.631Z,70.15
2023-05-19T06:20:59.349Z,73.57
2023-05-19T06:23:27.008Z,84.20
2023-05-19T06:25:53.645Z,87.07
2023-05-19T06:28:20.398Z,91.78
2023-05-19T06:30:47.057Z,104.32
2023-05-19T06:33:13.679Z,113.03
2023-05-19T06:35:40.560Z,113.28
2023-05-19T06:38:07.177Z,119.63
2023-05-19T06:40:34.093Z,122.07
2023-05-19T06:43:00.872Z,128.90
2023-05-19T06:45:27.534Z,128.90
2023-05-19T06:47:54.741Z,121.97
2023-05-19T06:50:22.466Z,149.45
2023-05-19T06:52:49.104Z,189.85
2023-05-19T06:55:17.974Z,200.10
2023-05-19T06:57:44.650Z,212.45
2023-05-19T07:00:13.420Z,204.82
2023-05-19T07:02:42.009Z,182.32
2023-05-19T07:05:10.273Z,202.90
2023-05-19T07:07:36.855Z,186.15
2023-05-19T07:10:03.706Z,218.27
2023-05-19T07:12:30.621Z,252.98
2023-05-19T07:14:57.279Z,259.63
2023-05-19T07:17:23.885Z,266.00
2023-05-19T07:19:50.747Z,252.15
2023-05-19T07:22:17.328Z,203.43
2023-05-19T07:24:44.031Z,199.35
2023-05-19T07:27:10.822Z,226.85
2023-05-19T07:29:37.436Z,160.75
2023-05-19T07:32:04.435Z,170.13
2023-05-19T07:34:31.233Z,151.27
2023-05-19T07:36:57.893Z,127.40
2023-05-19T07:39:27.851Z,26.55
2023-05-19T07:41:55.809Z,15.48
2023-05-19T07:44:22.516Z,19.95
2023-05-19T07:46:49.174Z,12.80
2023-05-19T07:49:15.812Z,13.00
2023-05-19T07:51:42.469Z,12.93
2023-05-19T07:54:09.279Z,15.02
2023-05-19T07:56:36.261Z,12.65
2023-05-19T07:59:03.827Z,13.02
2023-05-19T08:01:31.186Z,13.30
2023-05-19T08:03:58.010Z,10.88
2023-05-19T08:06:25.393Z,10.32
2023-05-19T08:08:52.420Z,12.57
2023-05-19T08:11:19.051Z,11.10
2023-05-19T08:13:48.688Z,10.55
2023-05-19T08:16:16.227Z,10.10
2023-05-19T08:18:42.891Z,10.32
2023-05-19T08:21:09.576Z,10.82
2023-05-19T08:23:37.440Z,9.80
2023-05-19T08:26:04.465Z,10.60
2023-05-19T08:28:31.521Z,10.70
2023-05-19T08:30:58.293Z,9.98
2023-05-19T08:33:25.021Z,10.27
2023-05-19T08:35:51.763Z,9.60
2023-05-19T08:38:18.421Z,9.38
2023-05-19T08:40:47.432Z,9.88
2023-05-19T08:43:14.147Z,9.85
2023-05-19T08:45:48.390Z,10.55
2023-05-19T08:48:17.237Z,10.48
2023-05-19T08:50:57.207Z,9.88
2023-05-19T08:53:33.648Z,10.68
2023-05-19T08:56:24.442Z,10.30
2023-05-19T08:58:51.622Z,9.45
2023-05-19T09:01:19.570Z,11.27
2023-05-19T09:03:47.532Z,10.60
2023-05-19T09:06:14.277Z,11.52
2023-05-19T09:08:42.338Z,11.18
2023-05-19T09:11:10.206Z,10.50
2023-05-19T09:13:37.045Z,10.75
2023-05-19T09:16:04.285Z,11.43
2023-05-19T09:18:31.842Z,10.70
2023-05-19T09:21:00.598Z,10.65
2023-05-19T09:23:29.884Z,11.38
2023-05-19T09:25:57.336Z,11.35
2023-05-19T09:28:34.532Z,10.73
2023-05-19T09:31:05.398Z,10.57
2023-05-19T09:33:36.674Z,11.75
2023-05-19T09:36:06.207Z,10.40
2023-05-19T09:38:33.214Z,10.20
2023-05-19T09:41:01.057Z,11.23
2023-05-19T09:43:33.628Z,11.73
2023-05-19T09:46:06.081Z,10.98
2023-05-19T09:48:34.662Z,9.70
2023-05-19T09:51:02.398Z,11.02
2023-05-19T09:53:32.708Z,10.52
2023-05-19T09:56:01.974Z,10.80
2023-05-19T09:58:34.752Z,11.00
2023-05-19T10:01:02.204Z,12.57
2023-05-19T10:03:29.976Z,12.10
2023-05-19T10:05:57.562Z,20.70
2023-05-19T10:08:26.603Z,18.23
2023-05-19T10:10:54.089Z,14.85
2023-05-19T10:13:22.218Z,12.90
2023-05-19T10:15:57.976Z,14.88
2023-05-19T10:18:26.703Z,13.57
2023-05-19T10:20:54.361Z,14.57
2023-05-19T10:23:22.294Z,14.27
2023-05-19T10:25:50.523Z,15.45
2023-05-19T10:28:21.155Z,17.35
2023-05-19T10:30:50.958Z,17.70
2023-05-19T10:33:20.027Z,17.88
2023-05-19T10:36:08.911Z,17.25
2023-05-19T10:38:53.351Z,17.00
2023-05-19T10:43:53.769Z,16.30
2023-05-19T10:46:25.492Z,18.30
2023-05-19T10:48:52.319Z,17.27
2023-05-19T10:51:19.048Z,16.48
2023-05-19T10:53:50.200Z,16.05
2023-05-19T10:56:36.733Z,15.15
2023-05-19T10:59:03.801Z,13.93
2023-05-19T11:01:33.309Z,14.07
2023-05-19T11:04:11.011Z,12.18
2023-05-19T11:06:38.791Z,13.18
2023-05-19T11:09:34.087Z,11.98
2023-05-19T11:12:06.923Z,12.00
2023-05-19T11:14:34.934Z,10.75
2023-05-19T11:17:01.657Z,9.75
2023-05-19T11:19:33.217Z,9.73
2023-05-19T11:22:11.073Z,10.10
2023-05-19T11:24:40.406Z,9.23
2023-05-19T11:27:26.161Z,9.00
2023-05-19T11:29:53.973Z,10.23
2023-05-19T11:32:22.607Z,8.68
2023-05-19T11:34:50.303Z,9.18
2023-05-19T11:37:17.262Z,9.23
2023-05-19T11:39:46.403Z,9.55
2023-05-19T11:42:13.201Z,9.73
2023-05-19T11:44:41.438Z,9.75
2023-05-19T11:47:08.669Z,9.82
2023-05-19T11:49:35.434Z,10.68
2023-05-19T11:52:02.646Z,10.30
2023-05-19T11:54:32.264Z,10.80
2023-05-19T11:57:04.014Z,10.98
2023-05-19T11:59:33.471Z,10.18
2023-05-19T12:02:26.094Z,10.73
2023-05-19T12:04:53.920Z,10.05
2023-05-19T12:07:23.471Z,10.07
2023-05-19T12:09:52.143Z,9.40
2023-05-19T12:12:20.462Z,10.27
2023-05-19T12:14:48.031Z,9.90
2023-05-19T12:17:17.091Z,9.52
2023-05-19T12:19:45.663Z,9.82
2023-05-19T12:22:14.676Z,10.30
2023-05-19T12:24:43.174Z,10.15
2023-05-19T12:27:18.464Z,9.77
2023-05-19T12:29:51.748Z,8.63
2023-05-19T12:32:19.699Z,9.02
2023-05-19T12:34:46.412Z,9.07
2023-05-19T12:37:13.144Z,10.00
2023-05-19T12:39:40.726Z,8.82
2023-05-19T12:42:12.393Z,9.40
2023-05-19T12:44:44.724Z,8.85
2023-05-19T12:47:11.310Z,9.48
2023-05-19T12:49:53.288Z,9.55
2023-05-19T12:52:23.081Z,9.30
2023-05-19T12:55:01.026Z,8.90
2023-05-19T12:57:35.127Z,9.02
2023-05-19T13:00:07.156Z,9.52
2023-05-19T13:02:36.176Z,9.65
2023-05-19T13:05:05.225Z,9.60
2023-05-19T13:07:32.229Z,9.45
2023-05-19T13:09:58.916Z,8.90
2023-05-19T13:12:26.167Z,9.40
2023-05-19T13:14:55.420Z,8.45
2023-05-19T13:17:22.346Z,9.43
2023-05-19T13:19:49.175Z,8.23
2023-05-19T13:22:15.797Z,8.15
2023-05-19T13:24:42.417Z,8.60
2023-05-19T13:27:09.079Z,8.60
2023-05-19T13:29:36.093Z,8.10
2023-05-19T13:32:02.722Z,7.82
2023-05-19T13:34:29.388Z,7.90
2023-05-19T13:36:56.099Z,8.23
2023-05-19T13:39:22.740Z,7.50
2023-05-19T13:41:49.462Z,7.97
2023-05-19T13:44:16.729Z,8.00
2023-05-19T13:46:45.646Z,7.90
2023-05-19T13:49:13.581Z,8.07
2023-05-19T13:51:43.732Z,7.50
2023-05-19T13:54:10.740Z,7.90
2023-05-19T13:56:37.500Z,7.80
2023-05-19T13:59:04.275Z,7.55
2023-05-19T14:01:31.087Z,7.88
2023-05-19T14:03:57.868Z,7.70
2023-05-19T14:06:24.879Z,7.68
2023-05-19T14:08:51.498Z,7.47
2023-05-19T14:11:21.680Z,7.60
2023-05-19T14:13:52.515Z,7.88
2023-05-19T14:16:22.074Z,8.27
2023-05-19T14:18:49.296Z,8.18
2023-05-19T14:21:15.968Z,7.70
2023-05-19T14:23:42.578Z,7.78
2023-05-19T14:26:09.234Z,8.05
2023-05-19T14:28:35.835Z,8.10
2023-05-19T14:31:02.553Z,7.53
2023-05-19T14:33:32.709Z,8.18
2023-05-19T14:36:01.639Z,7.97
2023-05-19T14:38:29.503Z,7.93
2023-05-19T14:40:56.513Z,7.65
2023-05-19T14:43:23.393Z,7.35
2023-05-19T14:45:50.117Z,7.35
2023-05-19T14:48:18.187Z,7.15
2023-05-19T14:50:46.529Z,7.10
2023-05-19T14:53:13.163Z,6.90
2023-05-19T14:55:39.972Z,7.38
2023-05-19T14:58:15.830Z,6.80
2023-05-19T15:00:53.318Z,7.18
2023-05-19T15:03:20.052Z,7.57
2023-05-19T15:05:47.039Z,7.43
2023-05-19T15:08:13.728Z,7.43
2023-05-19T15:10:40.438Z,7.28
2023-05-19T15:13:07.117Z,7.22
2023-05-19T15:15:33.779Z,7.63
2023-05-19T15:18:00.663Z,7.72
2023-05-19T15:20:29.448Z,7.40
2023-05-19T15:22:56.366Z,7.72
2023-05-19T15:25:23.030Z,7.63
2023-05-19T15:27:49.700Z,7.32
2023-05-19T15:30:16.459Z,7.85
2023-05-19T15:32:43.364Z,7.07
2023-05-19T15:35:10.137Z,8.10
2023-05-19T15:37:36.843Z,7.53
2023-05-19T15:40:04.455Z,7.85
2023-05-19T15:42:31.161Z,7.30
2023-05-19T15:44:57.790Z,7.30
2023-05-19T15:47:24.648Z,7.40
2023-05-19T15:49:51.599Z,7.05
2023-05-19T15:52:18.301Z,6.90
2023-05-19T15:54:45.030Z,7.30
2023-05-19T15:57:13.647Z,7.00
2023-05-19T15:59:40.399Z,7.65
2023-05-19T16:02:07.758Z,7.57
2023-05-19T16:04:34.465Z,7.30
2023-05-19T16:07:01.052Z,7.35
2023-05-19T16:09:27.705Z,7.32
2023-05-19T16:11:54.414Z,7.60
2023-05-19T16:14:20.998Z,7.20
2023-05-19T16:16:47.665Z,7.50
2023-05-19T16:19:14.425Z,7.63
2023-05-19T16:21:41.095Z,7.30
2023-05-19T16:24:07.694Z,7.93
2023-05-19T16:26:34.621Z,7.35
2023-05-19T16:29:01.223Z,7.68
2023-05-19T16:31:27.990Z,7.60
2023-05-19T16:33:54.629Z,7.35
2023-05-19T16:36:22.943Z,8.30
2023-05-19T16:38:49.596Z,8.80
2023-05-19T16:41:16.265Z,8.32
2023-05-19T16:43:43.063Z,7.90
2023-05-19T16:46:12.214Z,9.60
2023-05-19T16:48:38.989Z,8.73
2023-05-19T16:51:05.692Z,8.70
2023-05-19T16:53:32.376Z,8.75
2023-05-19T16:56:01.941Z,10.73
2023-05-19T16:58:30.309Z,9.30
2023-05-19T17:00:57.849Z,10.13
2023-05-19T17:03:24.784Z,11.02
2023-05-19T17:05:52.521Z,11.25
2023-05-19T17:08:19.214Z,11.15
2023-05-19T17:10:47.715Z,11.75
2023-05-19T17:13:14.449Z,11.68
2023-05-19T17:15:43.245Z,12.32
2023-05-19T17:18:12.575Z,11.90
2023-05-19T17:20:39.316Z,12.48
2023-05-19T17:23:06.096Z,11.23
2023-05-19T17:25:33.577Z,12.13
2023-05-19T17:28:00.462Z,11.68
2023-05-19T17:30:27.137Z,11.73
2023-05-19T17:32:53.811Z,12.40
2023-05-19T17:35:20.700Z,11.52
2023-05-19T17:37:47.319Z,11.13
2023-05-19T17:40:14.067Z,11.48
2023-05-19T17:42:40.721Z,10.93
2023-05-19T17:45:08.093Z,10.40
2023-05-19T17:47:34.781Z,10.02
2023-05-19T17:50:01.521Z,10.65
2023-05-19T17:52:28.464Z,10.25
2023-05-19T17:54:55.338Z,10.27
2023-05-19T17:57:25.278Z,10.02
2023-05-19T17:59:52.217Z,10.00
2023-05-19T18:02:19.300Z,9.45
2023-05-19T18:04:46.483Z,10.30
2023-05-19T18:07:14.365Z,9.82
2023-05-19T18:09:46.055Z,9.85
2023-05-19T18:12:12.854Z,10.48
2023-05-19T18:14:39.919Z,10.80
2023-05-19T18:17:06.610Z,11.48
2023-05-19T18:19:33.364Z,12.63
2023-05-19T18:21:59.973Z,13.00
2023-05-19T18:24:26.594Z,12.45
2023-05-19T18:26:53.168Z,13.15
2023-05-19T18:29:19.801Z,14.57
2023-05-19T18:31:46.453Z,15.68
2023-05-19T18:34:14.053Z,16.48
2023-05-19T18:36:41.408Z,19.48
2023-05-19T18:39:10.052Z,14.85
2023-05-19T18:41:37.693Z,13.43
2023-05-19T18:44:06.261Z,12.60
2023-05-19T18:46:33.719Z,11.07
2023-05-19T18:49:00.614Z,10.52
2023-05-19T18:51:27.221Z,11.77
2023-05-19T18:53:53.950Z,14.02
2023-05-19T18:56:25.119Z,14.75
2023-05-19T18:58:52.213Z,18.30
2023-05-19T19:01:18.898Z,22.92
2023-05-19T19:03:49.166Z,25.38
2023-05-19T19:06:20.816Z,31.05
2023-05-19T19:08:47.616Z,39.72
2023-05-19T19:11:14.193Z,50.90
2023-05-19T19:13:40.878Z,58.03
2023-05-19T19:16:07.591Z,62.45
2023-05-19T19:18:36.380Z,63.80
2023-05-19T19:21:05.444Z,56.33
2023-05-19T19:23:32.583Z,48.50
2023-05-19T19:25:59.276Z,44.53
2023-05-19T19:28:26.170Z,38.17
2023-05-19T19:30:52.784Z,31.00
2023-05-19T19:33:19.560Z,25.77
2023-05-19T19:35:46.985Z,20.90
2023-05-19T19:38:13.840Z,18.77
2023-05-19T19:40:40.517Z,17.08
2023-05-19T19:43:07.260Z,15.65
2023-05-19T19:45:34.928Z,15.45
2023-05-19T19:48:01.831Z,17.33
2023-05-19T19:50:28.657Z,15.23
2023-05-19T19:52:55.423Z,14.05
2023-05-19T19:55:22.131Z,16.95
2023-05-19T19:57:51.104Z,17.73
2023-05-19T20:00:18.585Z,17.67
2023-05-19T20:03:03.068Z,18.45
2023-05-19T20:05:31.421Z,18.77
2023-05-19T20:07:58.029Z,18.50
2023-05-19T20:10:24.703Z,17.50
2023-05-19T20:12:51.990Z,17.00
2023-05-19T20:15:19.515Z,18.63
2023-05-19T20:17:46.228Z,15.80
2023-05-19T20:20:13.319Z,16.30
2023-05-19T20:22:40.197Z,15.95
2023-05-19T20:25:07.345Z,14.60
2023-05-19T20:27:33.911Z,13.80
2023-05-19T20:30:00.856Z,15.13
2023-05-19T20:32:27.547Z,15.75
2023-05-19T20:34:54.273Z,16.65
2023-05-19T20:37:22.234Z,16.15
2023-05-19T20:39:48.931Z,14.23
2023-05-19T20:42:15.563Z,13.93
2023-05-19T20:44:42.524Z,14.15
2023-05-19T20:47:09.177Z,14.27
2023-05-19T20:49:36.028Z,14.23
2023-05-19T20:52:02.665Z,15.00
2023-05-19T20:54:29.320Z,14.90
2023-05-19T20:56:56.050Z,15.85
2023-05-19T20:59:22.802Z,16.42
2023-05-19T21:01:49.544Z,15.85
2023-05-19T21:04:16.345Z,15.98
2023-05-19T21:06:43.045Z,15.95
2023-05-19T21:09:10.920Z,17.00
2023-05-19T21:11:37.640Z,16.17
2023-05-19T21:14:04.500Z,15.43
2023-05-19T21:16:31.569Z,14.77
2023-05-19T21:18:58.394Z,16.75
2023-05-19T21:21:25.318Z,16.83
2023-05-19T21:23:52.004Z,16.27
2023-05-19T21:26:18.768Z,15.52
2023-05-19T21:28:45.566Z,15.15
2023-05-19T21:31:12.509Z,17.17
2023-05-19T21:33:39.134Z,14.80
2023-05-19T21:36:06.019Z,15.90
2023-05-19T21:38:32.637Z,16.05
2023-05-19T21:40:59.330Z,17.25
2023-05-19T21:43:26.093Z,16.38
2023-05-19T21:45:52.736Z,16.13
2023-05-19T21:48:19.553Z,17.75
2023-05-19T21:50:46.242Z,15.73
2023-05-19T21:53:12.860Z,16.77
2023-05-19T21:55:39.614Z,16.25
2023-05-19T21:58:06.241Z,17.48
2023-05-19T22:00:33.142Z,16.33
2023-05-19T22:03:00.199Z,17.70
2023-05-19T22:05:29.040Z,17.75
2023-05-19T22:07:55.880Z,18.13
2023-05-19T22:10:22.582Z,18.08
2023-05-19T22:12:49.203Z,21.58
2023-05-19T22:15:15.971Z,21.23
2023-05-19T22:17:42.899Z,23.55
2023-05-19T22:20:10.260Z,23.10
2023-05-19T22:22:36.861Z,24.58
2023-05-19T22:25:03.900Z,29.52
2023-05-19T22:27:30.766Z,30.48
2023-05-19T22:29:59.677Z,38.45
2023-05-19T22:32:26.412Z,46.15
2023-05-19T22:34:53.170Z,49.22
2023-05-19T22:37:21.080Z,46.85
2023-05-19T22:39:47.680Z,48.33
2023-05-19T22:42:14.627Z,56.95
2023-05-19T22:44:41.344Z,75.85
2023-05-19T22:47:13.648Z,80.75
2023-05-19T22:49:43.647Z,88.40
2023-05-19T22:52:11.284Z,99.75
2023-05-19T22:54:38.207Z,112.03
2023-05-19T22:57:05.286Z,123.97
2023-05-19T22:59:31.979Z,133.13
2023-05-19T23:01:58.619Z,147.73
2023-05-19T23:04:25.307Z,157.63
2023-05-19T23:06:52.302Z,174.30
2023-05-19T23:09:19.092Z,182.98
2023-05-19T23:11:46.265Z,188.98
2023-05-19T23:14:12.950Z,215.85
2023-05-19T23:16:39.685Z,239.55
2023-05-19T23:19:06.378Z,264.33
2023-05-19T23:21:33.149Z,265.42
2023-05-19T23:24:00.011Z,287.23
2023-05-19T23:26:27.005Z,291.95
2023-05-19T23:28:53.610Z,278.92
2023-05-19T23:31:20.354Z,275.77
2023-05-19T23:33:47.154Z,268.73
2023-05-19T23:36:13.947Z,272.83
2023-05-19T23:38:40.583Z,275.20
2023-05-19T23:41:07.177Z,285.40
2023-05-19T23:43:33.891Z,285.30
2023-05-19T23:46:01.016Z,276.65
2023-05-19T23:48:29.047Z,290.90
2023-05-19T23:50:55.832Z,304.67
2023-05-19T23:53:22.496Z,322.98
2023-05-19T23:55:49.325Z,348.60
2023-05-19T23:58:16.141Z,348.25
